createdAt,value
2018-07-17T00:01:47.095Z,20.93
2018-07-17T00:04:14.992Z,20.89
2018-07-17T00:06:42.609Z,20.85
2018-07-17T00:09:10.122Z,20.81
2018-07-17T00:11:37.889Z,20.78
2018-07-17T00:14:05.534Z,20.74
2018-07-17T00:16:33.166Z,20.71
2018-07-17T00:19:01.076Z,20.68
2018-07-17T00:21:28.709Z,20.65
2018-07-17T00:23:56.236Z,20.61
2018-07-17T00:26:24.098Z,20.58
2018-07-17T00:28:51.683Z,20.54
2018-07-17T00:31:19.300Z,20.49
2018-07-17T00:33:47.193Z,20.46
2018-07-17T00:36:14.739Z,20.41
2018-07-17T00:38:42.344Z,20.38
2018-07-17T00:41:10.379Z,20.36
2018-07-17T00:43:38.025Z,20.32
2018-07-17T00:46:05.618Z,20.29
2018-07-17T00:48:33.557Z,20.24
2018-07-17T00:51:01.187Z,20.22
2018-07-17T00:53:28.735Z,20.18
2018-07-17T00:55:56.585Z,20.13
2018-07-17T00:58:24.109Z,20.09
2018-07-17T01:00:51.083Z,20.05
2018-07-17T01:03:24.347Z,20.01
2018-07-17T01:05:57.390Z,19.97
2018-07-17T01:08:30.693Z,19.94
2018-07-17T01:11:03.738Z,19.90
2018-07-17T01:13:41.984Z,19.86
2018-07-17T01:16:09.654Z,19.81
2018-07-17T01:18:37.749Z,19.76
2018-07-17T01:21:05.316Z,19.73
2018-07-17T01:23:32.851Z,19.70
2018-07-17T01:26:00.925Z,19.66
2018-07-17T01:28:28.486Z,19.63
2018-07-17T01:30:56.080Z,19.59
2018-07-17T01:33:24.100Z,19.54
2018-07-17T01:35:51.683Z,19.49
2018-07-17T01:38:19.311Z,19.45
2018-07-17T01:40:47.126Z,19.42
2018-07-17T01:43:14.719Z,19.39
2018-07-17T01:45:42.311Z,19.37
2018-07-17T01:48:10.322Z,19.34
2018-07-17T01:50:37.935Z,19.31
2018-07-17T01:53:05.520Z,19.28
2018-07-17T01:55:33.388Z,19.26
2018-07-17T01:58:00.944Z,19.23
2018-07-17T02:00:28.527Z,19.20
2018-07-17T02:02:56.165Z,19.17
2018-07-17T02:05:23.827Z,19.14
2018-07-17T02:07:51.335Z,19.12
2018-07-17T02:10:19.313Z,19.10
2018-07-17T02:12:46.903Z,19.08
2018-07-17T02:15:14.448Z,19.07
2018-07-17T02:17:42.390Z,19.05
2018-07-17T02:20:10.288Z,19.04
2018-07-17T02:22:37.848Z,19.03
2018-07-17T02:25:05.757Z,19.03
2018-07-17T02:27:33.304Z,19.00
2018-07-17T02:30:00.843Z,18.99
2018-07-17T02:32:28.489Z,18.97
2018-07-17T02:34:56.067Z,18.96
2018-07-17T02:37:23.712Z,18.95
2018-07-17T02:39:51.386Z,18.95
2018-07-17T02:42:19.015Z,18.93
2018-07-17T02:44:46.564Z,18.92
2018-07-17T02:47:14.271Z,18.91
2018-07-17T02:49:41.789Z,18.92
2018-07-17T02:52:09.339Z,18.91
2018-07-17T02:54:37.203Z,18.91
2018-07-17T02:57:04.759Z,18.92
2018-07-17T02:59:32.310Z,18.93
2018-07-17T03:02:00.192Z,18.93
2018-07-17T03:04:27.741Z,18.94
2018-07-17T03:06:55.407Z,18.94
2018-07-17T03:09:23.122Z,18.97
2018-07-17T03:11:50.657Z,18.99
2018-07-17T03:14:18.226Z,19.00
2018-07-17T03:16:46.079Z,19.02
2018-07-17T03:19:13.683Z,19.05
2018-07-17T03:21:41.578Z,19.07
2018-07-17T03:24:09.406Z,19.08
2018-07-17T03:26:36.992Z,19.10
2018-07-17T03:29:04.798Z,19.13
2018-07-17T03:31:32.553Z,19.17
2018-07-17T03:34:00.487Z,19.19
2018-07-17T03:36:28.238Z,19.23
2018-07-17T03:38:55.774Z,19.26
2018-07-17T03:41:23.386Z,19.29
2018-07-17T03:43:51.144Z,19.32
2018-07-17T03:46:19.012Z,19.33
2018-07-17T03:48:46.805Z,19.37
2018-07-17T03:51:45.467Z,19.40
2018-07-17T03:54:13.142Z,19.45
2018-07-17T03:56:40.683Z,19.48
2018-07-17T03:59:08.410Z,19.51
2018-07-17T04:01:35.919Z,19.56
2018-07-17T04:04:03.527Z,19.58
2018-07-17T04:06:31.475Z,19.62
2018-07-17T04:08:59.011Z,19.66
2018-07-17T04:11:26.541Z,19.71
2018-07-17T04:13:54.404Z,19.75
2018-07-17T04:16:22.093Z,19.78
2018-07-17T04:18:49.658Z,19.83
2018-07-17T04:21:17.549Z,19.88
2018-07-17T04:23:45.283Z,19.92
2018-07-17T04:26:12.909Z,19.97
2018-07-17T04:28:40.967Z,20.02
2018-07-17T04:31:08.633Z,20.07
2018-07-17T04:33:36.225Z,20.13
2018-07-17T04:36:04.175Z,20.18
2018-07-17T04:38:31.793Z,20.23
2018-07-17T04:40:59.291Z,20.29
2018-07-17T04:43:27.154Z,20.34
2018-07-17T04:45:54.732Z,20.40
2018-07-17T04:48:22.274Z,20.45
2018-07-17T04:50:50.080Z,20.51
2018-07-17T04:53:17.654Z,20.58
2018-07-17T04:55:45.250Z,20.65
2018-07-17T04:58:13.014Z,20.71
2018-07-17T05:00:40.594Z,20.78
2018-07-17T05:03:08.189Z,20.85
2018-07-17T05:05:36.158Z,20.93
2018-07-17T05:08:18.257Z,21.01
2018-07-17T05:10:45.993Z,21.10
2018-07-17T05:13:13.503Z,21.20
2018-07-17T05:15:41.026Z,21.29
2018-07-17T05:18:08.997Z,21.37
2018-07-17T05:20:36.574Z,21.45
2018-07-17T05:23:04.248Z,21.55
2018-07-17T05:25:32.251Z,21.63
2018-07-17T05:27:59.818Z,21.70
2018-07-17T05:30:27.398Z,21.78
2018-07-17T05:32:55.305Z,21.86
2018-07-17T05:35:22.879Z,21.95
2018-07-17T05:37:50.430Z,22.03
2018-07-17T05:40:18.307Z,22.11
2018-07-17T05:42:45.922Z,22.19
2018-07-17T05:45:13.502Z,22.27
2018-07-17T05:47:41.603Z,22.34
2018-07-17T05:50:10.452Z,22.41
2018-07-17T05:52:38.050Z,22.50
2018-07-17T05:55:06.055Z,22.57
2018-07-17T05:57:33.613Z,22.63
2018-07-17T06:00:01.132Z,22.71
2018-07-17T06:02:28.967Z,22.79
2018-07-17T06:04:56.541Z,22.85
2018-07-17T06:07:24.109Z,22.91
2018-07-17T06:09:52.010Z,22.98
2018-07-17T06:12:19.713Z,23.04
2018-07-17T06:14:47.289Z,23.11
2018-07-17T06:17:14.895Z,23.17
2018-07-17T06:19:42.412Z,23.23
2018-07-17T06:22:09.991Z,23.29
2018-07-17T06:24:37.787Z,23.35
2018-07-17T06:27:05.758Z,23.42
2018-07-17T06:29:33.403Z,23.48
2018-07-17T06:32:01.225Z,23.54
2018-07-17T06:34:28.776Z,23.62
2018-07-17T06:36:56.452Z,23.68
2018-07-17T06:39:24.322Z,23.75
2018-07-17T06:41:51.938Z,23.82
2018-07-17T06:44:19.494Z,23.88
2018-07-17T06:46:47.501Z,23.94
2018-07-17T06:49:15.152Z,24.01
2018-07-17T06:51:43.564Z,24.08
2018-07-17T06:54:11.463Z,24.13
2018-07-17T06:56:38.993Z,24.21
2018-07-17T06:59:06.675Z,24.26
2018-07-17T07:01:34.724Z,24.34
2018-07-17T07:04:02.325Z,24.40
2018-07-17T07:06:29.922Z,24.45
2018-07-17T07:08:57.721Z,24.52
2018-07-17T07:11:25.260Z,24.57
2018-07-17T07:13:52.832Z,24.63
2018-07-17T07:16:20.890Z,24.68
2018-07-17T07:18:48.456Z,24.74
2018-07-17T07:21:16.010Z,24.80
2018-07-17T07:23:43.911Z,24.84
2018-07-17T07:26:11.495Z,24.90
2018-07-17T07:28:39.298Z,24.95
2018-07-17T07:31:07.251Z,25.01
2018-07-17T07:33:34.718Z,25.07
2018-07-17T07:36:02.295Z,25.13
2018-07-17T07:38:30.273Z,25.20
2018-07-17T07:40:57.851Z,25.26
2018-07-17T07:43:25.394Z,25.33
2018-07-17T07:45:53.261Z,25.41
2018-07-17T07:48:20.884Z,25.48
2018-07-17T07:50:48.467Z,25.54
2018-07-17T07:53:16.258Z,25.61
2018-07-17T07:55:43.963Z,25.67
2018-07-17T07:58:11.508Z,25.74
2018-07-17T08:00:39.570Z,25.78
2018-07-17T08:03:07.106Z,25.85
2018-07-17T08:05:34.713Z,25.90
2018-07-17T08:08:02.456Z,25.95
2018-07-17T08:10:30.008Z,26.01
2018-07-17T08:12:57.655Z,25.92
2018-07-17T08:15:25.425Z,26.10
2018-07-17T08:17:52.947Z,26.15
2018-07-17T08:20:20.473Z,26.21
2018-07-17T08:22:48.302Z,26.25
2018-07-17T08:25:15.959Z,26.30
2018-07-17T08:27:43.452Z,26.36
2018-07-17T08:30:11.334Z,26.42
2018-07-17T08:32:38.881Z,26.47
2018-07-17T08:35:06.469Z,26.52
2018-07-17T08:37:34.198Z,26.58
2018-07-17T08:40:01.842Z,26.64
2018-07-17T08:42:29.509Z,26.70
2018-07-17T08:44:57.628Z,26.77
2018-07-17T08:47:25.183Z,26.83
2018-07-17T08:49:52.791Z,26.89
2018-07-17T08:52:20.380Z,26.94
2018-07-17T08:54:48.059Z,27.01
2018-07-17T08:57:15.728Z,27.07
2018-07-17T08:59:43.530Z,27.14
2018-07-17T09:02:11.189Z,27.21
2018-07-17T09:04:38.712Z,27.26
2018-07-17T09:07:06.709Z,27.33
2018-07-17T09:09:34.308Z,27.38
2018-07-17T09:12:01.924Z,27.42
2018-07-17T09:14:29.749Z,27.46
2018-07-17T09:16:57.322Z,27.50
2018-07-17T09:19:24.863Z,27.54
2018-07-17T09:21:52.596Z,27.58
2018-07-17T09:24:20.148Z,27.61
2018-07-17T09:26:47.752Z,27.65
2018-07-17T09:29:15.399Z,27.69
2018-07-17T09:31:43.083Z,27.73
2018-07-17T09:34:10.646Z,27.79
2018-07-17T09:36:38.376Z,27.83
2018-07-17T09:39:07.260Z,27.89
2018-07-17T09:41:34.813Z,27.95
2018-07-17T09:44:02.735Z,27.99
2018-07-17T09:46:30.496Z,28.03
2018-07-17T09:48:58.037Z,28.09
2018-07-17T09:51:25.687Z,28.16
2018-07-17T09:53:53.327Z,28.27
2018-07-17T09:56:21.195Z,28.40
2018-07-17T09:58:49.094Z,28.59
2018-07-17T10:01:22.322Z,28.38
2018-07-17T10:03:50.122Z,29.02
2018-07-17T10:06:17.891Z,29.24
2018-07-17T10:08:45.585Z,29.45
2018-07-17T10:11:13.409Z,29.65
2018-07-17T10:13:41.027Z,29.84
2018-07-17T10:16:08.655Z,30.02
2018-07-17T10:18:36.379Z,30.22
2018-07-17T10:21:04.207Z,30.42
2018-07-17T10:23:31.782Z,30.61
2018-07-17T10:25:59.463Z,30.77
2018-07-17T10:28:27.364Z,30.92
2018-07-17T10:30:54.935Z,31.06
2018-07-17T10:33:22.887Z,31.21
2018-07-17T10:35:50.620Z,31.34
2018-07-17T10:38:18.293Z,31.44
2018-07-17T10:40:45.993Z,31.52
2018-07-17T10:43:13.742Z,31.63
2018-07-17T10:45:41.277Z,31.73
2018-07-17T10:48:09.084Z,31.81
2018-07-17T10:50:36.625Z,31.88
2018-07-17T10:53:04.239Z,31.98
2018-07-17T10:55:31.984Z,32.03
2018-07-17T10:57:59.794Z,32.08
2018-07-17T11:00:27.378Z,32.10
2018-07-17T11:02:55.136Z,32.13
2018-07-17T11:05:22.781Z,32.18
2018-07-17T11:07:50.368Z,32.24
2018-07-17T11:10:18.082Z,32.28
2018-07-17T11:12:45.761Z,32.30
2018-07-17T11:15:13.456Z,32.32
2018-07-17T11:17:41.135Z,32.34
2018-07-17T11:20:08.779Z,32.36
2018-07-17T11:22:36.430Z,32.38
2018-07-17T11:25:04.041Z,32.41
2018-07-17T11:27:31.574Z,32.42
2018-07-17T11:29:59.151Z,32.42
2018-07-17T11:32:27.035Z,32.43
2018-07-17T11:34:54.742Z,32.45
2018-07-17T11:37:22.366Z,32.47
2018-07-17T11:39:49.984Z,32.49
2018-07-17T11:42:17.618Z,32.52
2018-07-17T11:44:45.191Z,32.56
2018-07-17T11:47:12.848Z,32.58
2018-07-17T11:49:40.662Z,32.57
2018-07-17T11:52:08.174Z,32.56
2018-07-17T11:54:35.835Z,32.58
2018-07-17T11:57:03.608Z,32.63
2018-07-17T11:59:31.265Z,32.68
2018-07-17T12:01:58.928Z,32.72
2018-07-17T12:04:26.667Z,32.77
2018-07-17T12:06:54.626Z,32.81
2018-07-17T12:09:22.423Z,32.85
2018-07-17T12:11:50.070Z,32.88
2018-07-17T12:14:17.630Z,32.94
2018-07-17T12:16:45.309Z,32.97
2018-07-17T12:19:12.922Z,32.98
2018-07-17T12:21:40.473Z,32.99
2018-07-17T12:24:08.093Z,32.98
2018-07-17T12:26:35.853Z,33.00
2018-07-17T12:29:03.459Z,33.00
2018-07-17T12:31:31.269Z,33.01
2018-07-17T12:33:58.835Z,33.02
2018-07-17T12:36:26.654Z,33.04
2018-07-17T12:38:54.372Z,33.04
2018-07-17T12:41:22.244Z,33.03
2018-07-17T12:43:49.831Z,33.03
2018-07-17T12:46:17.545Z,33.02
2018-07-17T12:48:44.495Z,33.02
2018-07-17T12:51:11.398Z,33.06
2018-07-17T12:53:38.452Z,33.05
2018-07-17T12:56:05.363Z,33.01
2018-07-17T12:58:32.352Z,33.02
2018-07-17T13:00:59.587Z,33.01
2018-07-17T13:03:26.602Z,32.98
2018-07-17T13:05:53.606Z,32.93
2018-07-17T13:08:20.733Z,32.89
2018-07-17T13:10:47.694Z,32.90
2018-07-17T13:13:14.681Z,32.90
2018-07-17T13:15:41.626Z,32.85
2018-07-17T13:18:08.562Z,32.77
2018-07-17T13:20:35.520Z,32.70
2018-07-17T13:23:02.552Z,32.63
2018-07-17T13:25:29.789Z,32.56
2018-07-17T13:27:56.723Z,32.49
2018-07-17T13:30:23.906Z,32.38
2018-07-17T13:32:51.002Z,32.31
2018-07-17T13:35:17.962Z,32.22
2018-07-17T13:37:45.316Z,32.15
2018-07-17T13:40:12.502Z,32.06
2018-07-17T13:42:39.469Z,31.97
2018-07-17T13:45:06.461Z,31.88
2018-07-17T13:47:33.519Z,31.75
2018-07-17T13:50:00.623Z,31.65
2018-07-17T13:52:28.515Z,31.58
2018-07-17T13:54:55.603Z,31.49
2018-07-17T13:57:22.590Z,31.43
2018-07-17T13:59:49.798Z,31.37
2018-07-17T14:02:17.030Z,31.31
2018-07-17T14:04:44.048Z,31.24
2018-07-17T14:07:11.120Z,31.17
2018-07-17T14:09:38.168Z,31.10
2018-07-17T14:12:05.180Z,31.04
2018-07-17T14:14:32.301Z,30.99
2018-07-17T14:16:59.413Z,30.95
2018-07-17T14:19:26.396Z,30.92
2018-07-17T14:21:53.445Z,30.89
2018-07-17T14:24:20.555Z,30.85
2018-07-17T14:26:47.717Z,30.83
2018-07-17T14:29:14.843Z,30.78
2018-07-17T14:31:42.055Z,30.74
2018-07-17T14:34:08.971Z,30.68
2018-07-17T14:36:35.946Z,30.63
2018-07-17T14:39:03.510Z,30.57
2018-07-17T14:41:58.660Z,30.51
2018-07-17T14:44:25.661Z,30.47
2018-07-17T14:46:52.683Z,30.46
2018-07-17T14:49:19.776Z,30.47
2018-07-17T14:51:46.785Z,30.47
2018-07-17T14:54:13.754Z,30.47
2018-07-17T14:56:40.867Z,30.46
2018-07-17T14:59:08.101Z,30.44
2018-07-17T15:01:35.075Z,30.44
2018-07-17T15:04:02.193Z,30.43
2018-07-17T15:06:29.195Z,30.41
2018-07-17T15:08:58.535Z,30.39
2018-07-17T15:11:26.440Z,30.78
2018-07-17T15:13:54.173Z,30.86
2018-07-17T15:16:21.798Z,30.86
2018-07-17T15:18:49.559Z,30.86
2018-07-17T15:21:17.237Z,30.89
2018-07-17T15:23:44.830Z,30.91
2018-07-17T15:26:12.439Z,30.92
2018-07-17T15:28:40.082Z,30.96
2018-07-17T15:31:07.706Z,30.99
2018-07-17T15:33:35.396Z,31.04
2018-07-17T15:36:02.974Z,31.09
2018-07-17T15:38:30.686Z,31.14
2018-07-17T15:40:58.648Z,31.17
2018-07-17T15:43:26.528Z,31.21
2018-07-17T15:45:54.148Z,31.23
2018-07-17T15:48:21.880Z,31.28
2018-07-17T15:50:49.423Z,31.35
2018-07-17T15:53:16.973Z,31.42
2018-07-17T15:55:44.534Z,31.51
2018-07-17T15:58:12.362Z,31.58
2018-07-17T16:00:39.896Z,31.64
2018-07-17T16:03:07.569Z,31.68
2018-07-17T16:05:35.110Z,31.70
2018-07-17T16:08:02.698Z,31.72
2018-07-17T16:10:30.419Z,31.71
2018-07-17T16:12:58.148Z,31.71
2018-07-17T16:15:25.748Z,31.72
2018-07-17T16:17:53.426Z,31.72
2018-07-17T16:20:20.959Z,31.69
2018-07-17T16:22:48.577Z,31.64
2018-07-17T16:25:16.404Z,31.58
2018-07-17T16:27:44.003Z,31.52
2018-07-17T16:30:11.552Z,31.45
2018-07-17T16:32:39.231Z,31.39
2018-07-17T16:35:07.202Z,31.33
2018-07-17T16:37:34.805Z,31.27
2018-07-17T16:40:02.599Z,31.20
2018-07-17T16:42:30.532Z,31.13
2018-07-17T16:44:58.115Z,31.07
2018-07-17T16:47:25.807Z,30.94
2018-07-17T16:49:53.519Z,30.95
2018-07-17T16:52:21.067Z,30.92
2018-07-17T16:54:48.801Z,30.76
2018-07-17T16:57:16.396Z,30.85
2018-07-17T16:59:43.969Z,30.82
2018-07-17T17:02:11.567Z,30.77
2018-07-17T17:04:39.172Z,30.71
2018-07-17T17:07:06.759Z,30.68
2018-07-17T17:09:34.670Z,30.64
2018-07-17T17:12:02.321Z,30.59
2018-07-17T17:14:29.981Z,30.56
2018-07-17T17:16:57.726Z,30.52
2018-07-17T17:19:25.339Z,30.49
2018-07-17T17:21:52.937Z,30.43
2018-07-17T17:24:20.830Z,30.39
2018-07-17T17:26:48.412Z,30.35
2018-07-17T17:29:15.956Z,30.32
2018-07-17T17:31:43.542Z,30.28
2018-07-17T17:34:11.161Z,30.25
2018-07-17T17:36:38.700Z,30.21
2018-07-17T17:39:08.016Z,30.15
2018-07-17T17:41:35.685Z,30.11
2018-07-17T17:44:04.579Z,30.08
2018-07-17T17:46:32.442Z,30.03
2018-07-17T17:49:00.148Z,29.97
2018-07-17T17:51:27.768Z,29.89
2018-07-17T17:53:55.418Z,29.83
2018-07-17T17:56:23.034Z,29.78
2018-07-17T17:58:50.617Z,29.74
2018-07-17T18:01:18.462Z,29.65
2018-07-17T18:03:46.226Z,29.57
2018-07-17T18:06:13.731Z,29.47
2018-07-17T18:08:41.443Z,29.37
2018-07-17T18:11:09.149Z,29.30
2018-07-17T18:13:36.669Z,29.20
2018-07-17T18:16:04.453Z,29.09
2018-07-17T18:18:32.228Z,29.00
2018-07-17T18:20:59.832Z,28.90
2018-07-17T18:23:27.563Z,28.81
2018-07-17T18:25:55.163Z,28.70
2018-07-17T18:28:22.764Z,28.60
2018-07-17T18:30:50.461Z,28.50
2018-07-17T18:33:18.058Z,28.40
2018-07-17T18:35:45.598Z,28.31
2018-07-17T18:38:13.222Z,28.23
2018-07-17T18:40:40.915Z,28.16
2018-07-17T18:43:08.442Z,28.08
2018-07-17T18:45:36.336Z,28.01
2018-07-17T18:48:03.967Z,27.96
2018-07-17T18:50:31.656Z,27.87
2018-07-17T18:52:59.490Z,27.80
2018-07-17T18:55:27.171Z,27.72
2018-07-17T18:57:54.767Z,27.66
2018-07-17T19:00:22.546Z,27.59
2018-07-17T19:02:50.229Z,27.53
2018-07-17T19:05:17.888Z,27.45
2018-07-17T19:07:45.980Z,27.37
2018-07-17T19:10:13.628Z,27.28
2018-07-17T19:12:41.176Z,27.20
2018-07-17T19:15:09.060Z,27.14
2018-07-17T19:17:36.708Z,27.07
2018-07-17T19:20:04.294Z,26.98
2018-07-17T19:22:32.095Z,26.90
2018-07-17T19:24:59.667Z,26.84
2018-07-17T19:27:27.172Z,26.79
2018-07-17T19:29:54.903Z,26.75
2018-07-17T19:32:22.463Z,26.67
2018-07-17T19:34:50.077Z,26.62
2018-07-17T19:37:17.849Z,26.56
2018-07-17T19:39:45.456Z,26.50
2018-07-17T19:42:13.077Z,26.43
2018-07-17T19:44:40.698Z,26.36
2018-07-17T19:47:08.429Z,26.30
2018-07-17T19:49:36.045Z,26.24
2018-07-17T19:52:03.884Z,26.18
2018-07-17T19:54:31.583Z,26.14
2018-07-17T19:56:59.125Z,26.08
2018-07-17T19:59:26.939Z,26.01
2018-07-17T20:01:54.771Z,25.96
2018-07-17T20:04:22.303Z,25.90
2018-07-17T20:06:49.931Z,25.84
2018-07-17T20:09:17.653Z,25.81
2018-07-17T20:11:45.187Z,25.75
2018-07-17T20:14:12.993Z,25.60
2018-07-17T20:16:40.768Z,25.65
2018-07-17T20:19:08.420Z,25.58
2018-07-17T20:21:35.968Z,25.53
2018-07-17T20:24:03.716Z,25.48
2018-07-17T20:26:31.317Z,25.43
2018-07-17T20:28:58.908Z,25.39
2018-07-17T20:31:26.782Z,25.33
2018-07-17T20:33:54.359Z,25.28
2018-07-17T20:36:21.881Z,25.23
2018-07-17T20:38:49.651Z,25.20
2018-07-17T20:41:17.252Z,25.16
2018-07-17T20:43:44.999Z,25.10
2018-07-17T20:46:12.681Z,25.07
2018-07-17T20:48:40.514Z,24.98
2018-07-17T20:51:08.788Z,24.96
2018-07-17T20:53:36.485Z,24.91
2018-07-17T20:56:04.143Z,24.87
2018-07-17T20:58:32.917Z,24.82
2018-07-17T21:01:00.568Z,24.78
2018-07-17T21:03:28.123Z,24.74
2018-07-17T21:05:55.730Z,24.68
2018-07-17T21:08:23.329Z,24.65
2018-07-17T21:10:50.907Z,24.60
2018-07-17T21:13:18.801Z,24.56
2018-07-17T21:15:46.431Z,24.51
2018-07-17T21:18:13.962Z,24.47
2018-07-17T21:20:41.622Z,24.41
2018-07-17T21:23:09.186Z,24.38
2018-07-17T21:25:36.865Z,24.34
2018-07-17T21:28:04.735Z,24.30
2018-07-17T21:30:32.586Z,24.26
2018-07-17T21:33:00.157Z,24.22
2018-07-17T21:35:27.906Z,24.18
2018-07-17T21:37:55.673Z,24.15
2018-07-17T21:40:23.141Z,24.11
2018-07-17T21:42:50.761Z,24.07
2018-07-17T21:45:18.656Z,24.03
2018-07-17T21:47:46.264Z,23.99
2018-07-17T21:50:13.977Z,23.95
2018-07-17T21:52:41.677Z,23.92
2018-07-17T21:55:09.252Z,23.86
2018-07-17T21:57:37.050Z,23.81
2018-07-17T22:00:07.073Z,23.76
2018-07-17T22:02:34.649Z,23.71
2018-07-17T22:05:02.428Z,23.65
2018-07-17T22:07:30.176Z,23.61
2018-07-17T22:09:57.734Z,23.58
2018-07-17T22:12:25.546Z,23.53
2018-07-17T22:14:53.198Z,23.49
2018-07-17T22:17:20.899Z,23.44
2018-07-17T22:19:48.639Z,23.40
2018-07-17T22:22:16.647Z,23.37
2018-07-17T22:24:44.278Z,23.32
2018-07-17T22:27:11.876Z,23.30
2018-07-17T22:29:39.450Z,23.25
2018-07-17T22:32:07.345Z,23.20
2018-07-17T22:34:35.082Z,23.14
2018-07-17T22:37:07.659Z,23.09
2018-07-17T22:39:35.467Z,23.04
2018-07-17T22:42:03.038Z,22.99
2018-07-17T22:44:30.693Z,22.94
2018-07-17T22:46:58.417Z,22.90
2018-07-17T22:49:26.006Z,22.83
2018-07-17T22:51:54.057Z,22.80
2018-07-17T22:54:21.704Z,22.73
2018-07-17T22:56:49.253Z,22.59
2018-07-17T22:59:17.862Z,22.66
2018-07-17T23:01:45.908Z,22.62
2018-07-17T23:04:13.468Z,22.58
2018-07-17T23:06:41.122Z,22.53
2018-07-17T23:09:09.585Z,22.48
2018-07-17T23:11:37.824Z,22.41
2018-07-17T23:14:05.475Z,22.36
2018-07-17T23:16:33.301Z,22.33
2018-07-17T23:19:00.849Z,22.29
2018-07-17T23:21:28.470Z,22.24
2018-07-17T23:23:56.157Z,22.18
2018-07-17T23:26:23.710Z,22.15
2018-07-17T23:28:51.471Z,22.10
2018-07-17T23:31:19.339Z,22.04
2018-07-17T23:33:46.955Z,22.01
2018-07-17T23:36:14.502Z,21.97
2018-07-17T23:38:42.288Z,21.93
2018-07-17T23:41:09.834Z,21.90
2018-07-17T23:43:37.401Z,21.85
2018-07-17T23:46:05.117Z,21.82
2018-07-17T23:48:32.649Z,21.79
2018-07-17T23:51:00.462Z,21.76
2018-07-17T23:53:28.400Z,21.75
2018-07-17T23:55:55.970Z,21.73
2018-07-17T23:58:23.706Z,21.72
